createdAt,value
2023-01-12T00:00:49.041Z,-0.23
2023-01-12T00:03:35.623Z,-0.19
2023-01-12T00:06:15.647Z,-0.18
2023-01-12T00:09:09.634Z,-0.24
2023-01-12T00:11:56.640Z,-0.32
2023-01-12T00:14:29.743Z,-0.32
2023-01-12T00:17:18.618Z,-0.32
2023-01-12T00:19:51.800Z,-0.28
2023-01-12T00:22:38.630Z,-0.26
2023-01-12T00:25:18.659Z,-0.26
2023-01-12T00:28:12.638Z,-0.26
2023-01-12T00:30:59.674Z,-0.26
2023-01-12T00:33:32.739Z,-0.27
2023-01-12T00:36:29.640Z,-0.26
2023-01-12T00:39:16.663Z,-0.25
2023-01-12T00:42:15.662Z,-0.26
2023-01-12T00:45:20.683Z,-0.21
2023-01-12T00:47:53.991Z,-0.21
2023-01-12T00:50:40.654Z,-0.23
2023-01-12T00:53:13.755Z,-0.21
2023-01-12T00:56:00.661Z,-0.19
2023-01-12T00:58:41.677Z,-0.18
2023-01-12T01:01:28.775Z,-0.18
2023-01-12T01:04:04.759Z,-0.17
2023-01-12T01:06:51.660Z,-0.17
2023-01-12T01:09:34.648Z,-0.21
2023-01-12T01:12:28.670Z,-0.19
2023-01-12T01:15:22.651Z,-0.21
2023-01-12T01:18:16.660Z,-0.22
2023-01-12T01:21:10.645Z,-0.26
2023-01-12T01:23:57.664Z,-0.22
2023-01-12T01:26:33.766Z,-0.18
2023-01-12T01:29:20.664Z,-0.13
2023-01-12T01:31:53.773Z,-0.10
2023-01-12T01:34:40.673Z,-0.09
2023-01-12T01:37:13.766Z,-0.06
2023-01-12T01:40:01.675Z,-0.05
2023-01-12T01:42:34.787Z,-0.06
2023-01-12T01:45:23.667Z,-0.09
2023-01-12T01:48:07.755Z,-0.11
2023-01-12T01:51:03.684Z,-0.12
2023-01-12T01:53:48.682Z,-0.12
2023-01-12T01:56:43.681Z,-0.18
2023-01-12T01:59:35.667Z,-0.16
2023-01-12T02:02:11.844Z,-0.12
2023-01-12T02:05:01.680Z,-0.09
2023-01-12T02:07:46.667Z,-0.08
2023-01-12T02:10:40.672Z,-0.08
2023-01-12T02:13:46.695Z,-0.13
2023-01-12T02:16:25.771Z,-0.11
2023-01-12T02:19:41.716Z,-0.12
2023-01-12T02:22:24.681Z,-0.12
2023-01-12T02:25:34.715Z,-0.13
2023-01-12T02:28:42.825Z,-0.13
2023-01-12T02:31:48.694Z,-0.14
2023-01-12T02:34:59.725Z,-0.19
2023-01-12T02:38:21.715Z,-0.22
2023-01-12T02:41:14.684Z,-0.24
2023-01-12T02:44:08.794Z,-0.25
2023-01-12T02:47:04.685Z,-0.26
2023-01-12T02:49:57.701Z,-0.27
2023-01-12T02:52:32.815Z,-0.28
2023-01-12T02:55:21.704Z,-0.26
2023-01-12T02:57:55.807Z,-0.30
2023-01-12T03:00:45.745Z,-0.28
2023-01-12T03:03:19.404Z,-0.27
2023-01-12T03:06:08.693Z,-0.29
2023-01-12T03:08:52.721Z,-0.38
2023-01-12T03:11:49.753Z,-0.43
2023-01-12T03:14:40.703Z,-0.44
2023-01-12T03:17:20.136Z,-0.44
2023-01-12T03:20:23.730Z,-0.41
2023-01-12T03:23:08.701Z,-0.39
2023-01-12T03:26:06.695Z,-0.34
2023-01-12T03:28:59.704Z,-0.34
2023-01-12T03:31:32.852Z,-0.39
2023-01-12T03:34:26.757Z,-0.40
2023-01-12T03:37:29.689Z,-0.42
2023-01-12T03:40:15.725Z,-0.45
2023-01-12T03:42:58.792Z,-0.47
2023-01-12T03:45:50.701Z,-0.42
2023-01-12T03:48:44.805Z,-0.37
2023-01-12T03:51:31.710Z,-0.36
2023-01-12T03:54:14.841Z,-0.36
2023-01-12T03:56:57.704Z,-0.32
2023-01-12T03:59:37.810Z,-0.28
2023-01-12T04:02:18.736Z,-0.26
2023-01-12T04:04:58.891Z,-0.27
2023-01-12T04:07:38.728Z,-0.27
2023-01-12T04:10:18.718Z,-0.27
2023-01-12T04:12:51.840Z,-0.27
2023-01-12T04:15:38.712Z,-0.26
2023-01-12T04:18:11.820Z,-0.25
2023-01-12T04:20:58.755Z,-0.20
2023-01-12T04:23:31.828Z,-0.16
2023-01-12T04:26:18.726Z,-0.16
2023-01-12T04:28:58.716Z,-0.13
2023-01-12T04:31:45.785Z,-0.08
2023-01-12T04:34:18.873Z,-0.02
2023-01-12T04:37:08.726Z,0.03
2023-01-12T04:39:48.733Z,0.07
2023-01-12T04:42:53.723Z,0.12
2023-01-12T04:45:26.859Z,0.14
2023-01-12T04:48:16.751Z,0.16
2023-01-12T04:50:50.561Z,0.17
2023-01-12T04:53:40.781Z,0.17
2023-01-12T04:56:15.096Z,0.17
2023-01-12T04:59:06.746Z,0.17
2023-01-12T05:01:39.895Z,0.18
2023-01-12T05:04:26.770Z,0.22
2023-01-12T05:06:59.831Z,0.22
2023-01-12T05:10:04.720Z,0.26
2023-01-12T05:12:44.741Z,0.32
2023-01-12T05:15:38.728Z,0.36
2023-01-12T05:18:25.747Z,0.37
2023-01-12T05:20:58.837Z,0.36
2023-01-12T05:23:45.849Z,0.37
2023-01-12T05:26:26.747Z,0.36
2023-01-12T05:29:21.750Z,0.38
2023-01-12T05:32:08.741Z,0.42
2023-01-12T05:34:48.732Z,0.43
2023-01-12T05:37:35.774Z,0.49
2023-01-12T05:40:08.863Z,0.51
2023-01-12T05:43:17.760Z,0.50
2023-01-12T05:45:50.946Z,0.50
2023-01-12T05:48:38.740Z,0.48
2023-01-12T05:51:14.311Z,0.46
2023-01-12T05:54:01.776Z,0.49
2023-01-12T05:56:34.849Z,0.51
2023-01-12T05:59:21.755Z,0.56
2023-01-12T06:02:01.780Z,0.59
2023-01-12T06:04:55.804Z,0.60
2023-01-12T06:07:43.755Z,0.60
2023-01-12T06:10:24.731Z,0.62
2023-01-12T06:13:29.770Z,0.58
2023-01-12T06:16:18.906Z,0.55
2023-01-12T06:19:13.227Z,0.54
2023-01-12T06:22:06.752Z,0.54
2023-01-12T06:24:55.768Z,0.54
2023-01-12T06:27:28.851Z,0.55
2023-01-12T06:30:16.776Z,0.53
2023-01-12T06:32:49.860Z,0.54
2023-01-12T06:35:43.793Z,0.53
2023-01-12T06:38:39.768Z,0.56
2023-01-12T06:41:45.757Z,0.57
2023-01-12T06:44:18.853Z,0.56
2023-01-12T06:47:08.793Z,0.60
2023-01-12T06:49:48.769Z,0.61
2023-01-12T06:52:36.773Z,0.61
2023-01-12T06:55:11.310Z,0.62
2023-01-12T06:57:57.772Z,0.64
2023-01-12T07:00:30.932Z,0.65
2023-01-12T07:03:25.765Z,0.67
2023-01-12T07:06:05.804Z,0.71
2023-01-12T07:08:52.821Z,0.74
2023-01-12T07:11:25.876Z,0.78
2023-01-12T07:14:12.846Z,0.80
2023-01-12T07:16:45.864Z,0.82
2023-01-12T07:19:32.785Z,0.86
2023-01-12T07:22:05.880Z,0.87
2023-01-12T07:24:52.777Z,0.89
2023-01-12T07:27:32.815Z,0.91
2023-01-12T07:30:27.804Z,0.93
2023-01-12T07:33:19.797Z,0.96
2023-01-12T07:35:59.787Z,0.92
2023-01-12T07:38:53.771Z,0.89
2023-01-12T07:42:00.004Z,0.91
2023-01-12T07:44:39.844Z,0.92
2023-01-12T07:47:34.809Z,0.96
2023-01-12T07:50:21.800Z,0.99
2023-01-12T07:52:54.890Z,1.00
2023-01-12T07:55:41.797Z,1.04
2023-01-12T07:58:21.810Z,1.05
2023-01-12T08:01:15.817Z,1.09
2023-01-12T08:04:03.809Z,1.13
2023-01-12T08:06:36.915Z,1.15
2023-01-12T08:09:25.797Z,1.17
2023-01-12T08:11:58.945Z,1.20
2023-01-12T08:14:47.808Z,1.24
2023-01-12T08:17:33.834Z,1.27
2023-01-12T08:20:25.820Z,1.32
2023-01-12T08:23:02.904Z,1.35
2023-01-12T08:25:53.800Z,1.39
2023-01-12T08:28:40.820Z,1.44
2023-01-12T08:31:36.802Z,1.45
2023-01-12T08:34:23.812Z,1.50
2023-01-12T08:36:56.892Z,1.54
2023-01-12T08:39:43.801Z,1.58
2023-01-12T08:42:16.959Z,1.62
2023-01-12T08:45:03.808Z,1.67
2023-01-12T08:47:43.835Z,1.72
2023-01-12T08:50:37.828Z,1.73
2023-01-12T08:53:31.817Z,1.78
2023-01-12T08:56:25.810Z,1.79
2023-01-12T08:59:20.823Z,1.80
2023-01-12T09:02:14.904Z,1.84
2023-01-12T09:05:08.847Z,1.88
2023-01-12T09:07:55.815Z,1.92
2023-01-12T09:10:28.919Z,1.93
2023-01-12T09:13:18.814Z,1.94
2023-01-12T09:16:11.700Z,1.95
2023-01-12T09:19:06.835Z,2.00
2023-01-12T09:21:56.828Z,2.05
2023-01-12T09:24:30.113Z,2.10
2023-01-12T09:27:16.808Z,2.14
2023-01-12T09:29:50.081Z,2.16
2023-01-12T09:32:37.238Z,2.20
2023-01-12T09:35:10.910Z,2.24
2023-01-12T09:37:57.836Z,2.29
2023-01-12T09:40:30.927Z,2.31
2023-01-12T09:43:40.835Z,2.30
2023-01-12T09:46:47.849Z,2.32
2023-01-12T09:49:46.830Z,2.37
2023-01-12T09:52:37.846Z,2.39
2023-01-12T09:55:13.020Z,2.42
2023-01-12T09:58:23.848Z,2.47
2023-01-12T10:01:07.863Z,2.49
2023-01-12T10:04:03.826Z,2.52
2023-01-12T10:06:57.851Z,2.56
2023-01-12T10:09:44.818Z,2.58
2023-01-12T10:12:42.027Z,2.60
2023-01-12T10:15:28.830Z,2.65
2023-01-12T10:18:05.989Z,2.71
2023-01-12T10:20:52.854Z,2.76
2023-01-12T10:23:25.990Z,2.80
2023-01-12T10:26:30.875Z,2.84
2023-01-12T10:29:10.835Z,2.86
2023-01-12T10:31:57.973Z,2.87
2023-01-12T10:34:30.942Z,2.89
2023-01-12T10:37:24.892Z,2.90
2023-01-12T10:40:11.853Z,2.93
2023-01-12T10:43:06.702Z,2.96
2023-01-12T10:46:10.929Z,3.01
2023-01-12T10:48:59.832Z,3.05
2023-01-12T10:51:54.888Z,3.05
2023-01-12T10:54:38.801Z,3.06
2023-01-12T10:57:28.859Z,3.08
2023-01-12T11:00:10.847Z,3.09
2023-01-12T11:02:56.892Z,3.12
2023-01-12T11:05:51.852Z,3.16
2023-01-12T11:08:38.862Z,3.19
2023-01-12T11:11:42.890Z,3.22
2023-01-12T11:14:45.841Z,3.25
2023-01-12T11:18:14.865Z,3.30
2023-01-12T11:20:53.994Z,3.33
2023-01-12T11:23:58.878Z,3.38
2023-01-12T11:27:06.890Z,3.43
2023-01-12T11:30:19.893Z,3.51
2023-01-12T11:33:16.941Z,3.53
2023-01-12T11:36:07.879Z,3.56
2023-01-12T11:38:57.858Z,3.58
2023-01-12T11:42:20.909Z,3.61
2023-01-12T11:45:12.887Z,3.65
2023-01-12T11:48:07.893Z,3.69
2023-01-12T11:51:03.915Z,3.75
2023-01-12T11:53:51.872Z,3.78
2023-01-12T11:56:33.998Z,3.81
2023-01-12T11:59:25.873Z,3.83
2023-01-12T12:02:08.055Z,3.86
2023-01-12T12:05:31.878Z,3.91
2023-01-12T12:08:41.996Z,3.94
2023-01-12T12:11:41.942Z,3.96
2023-01-12T12:14:58.002Z,3.98
2023-01-12T12:18:22.904Z,4.02
2023-01-12T12:21:11.900Z,4.03
2023-01-12T12:24:23.890Z,4.01
2023-01-12T12:27:28.907Z,4.01
2023-01-12T12:30:27.914Z,4.03
2023-01-12T12:33:14.921Z,4.04
2023-01-12T12:36:13.030Z,4.08
2023-01-12T12:39:21.913Z,4.10
2023-01-12T12:42:49.895Z,4.10
2023-01-12T12:45:46.884Z,4.11
2023-01-12T12:48:51.893Z,4.10
2023-01-12T12:51:27.033Z,4.12
2023-01-12T12:54:18.936Z,4.13
2023-01-12T12:56:53.030Z,4.14
2023-01-12T12:59:41.916Z,4.16
2023-01-12T13:02:44.945Z,4.19
2023-01-12T13:05:52.896Z,4.23
2023-01-12T13:08:40.915Z,4.27
2023-01-12T13:12:00.898Z,4.28
2023-01-12T13:14:56.914Z,4.25
2023-01-12T13:17:55.932Z,4.25
2023-01-12T13:21:05.910Z,4.22
2023-01-12T13:23:55.929Z,4.21
2023-01-12T13:26:53.909Z,4.20
2023-01-12T13:29:51.913Z,4.18
2023-01-12T13:32:43.918Z,4.18
2023-01-12T13:35:31.032Z,4.16
2023-01-12T13:38:38.983Z,4.13
2023-01-12T13:41:45.918Z,4.13
2023-01-12T13:44:46.907Z,4.10
2023-01-12T13:47:39.911Z,4.07
2023-01-12T13:50:24.074Z,4.08
2023-01-12T13:53:11.924Z,4.06
2023-01-12T13:55:51.920Z,4.05
2023-01-12T13:58:56.941Z,4.06
2023-01-12T14:01:46.077Z,4.06
2023-01-12T14:04:28.913Z,4.03
2023-01-12T14:07:29.933Z,4.02
2023-01-12T14:10:33.919Z,4.01
2023-01-12T14:13:44.101Z,4.03
2023-01-12T14:17:04.802Z,4.01
2023-01-12T14:19:39.089Z,3.98
2023-01-12T14:22:26.936Z,3.96
2023-01-12T14:25:34.939Z,3.97
2023-01-12T14:28:36.937Z,3.95
2023-01-12T14:31:29.953Z,3.95
2023-01-12T14:34:07.066Z,3.94
2023-01-12T14:37:00.909Z,3.93
2023-01-12T14:39:59.931Z,3.91
2023-01-12T14:43:04.949Z,3.91
2023-01-12T14:45:56.915Z,3.91
2023-01-12T14:48:48.939Z,3.90
2023-01-12T14:52:08.007Z,3.87
2023-01-12T14:55:01.946Z,3.88
2023-01-12T14:57:51.077Z,3.85
2023-01-12T15:00:30.020Z,3.83
2023-01-12T15:03:35.301Z,3.80
2023-01-12T15:06:13.084Z,3.78
2023-01-12T15:09:06.943Z,3.76
2023-01-12T15:11:45.070Z,3.73
2023-01-12T15:14:35.952Z,3.70
2023-01-12T15:17:34.004Z,3.66
2023-01-12T15:20:45.950Z,3.60
2023-01-12T15:23:54.966Z,3.54
2023-01-12T15:26:35.962Z,3.53
2023-01-12T15:29:31.350Z,3.51
2023-01-12T15:32:48.075Z,3.50
2023-01-12T15:35:42.007Z,3.49
2023-01-12T15:38:36.043Z,3.46
2023-01-12T15:41:45.940Z,3.44
2023-01-12T15:44:24.145Z,3.41
2023-01-12T15:47:12.965Z,3.35
2023-01-12T15:49:54.003Z,3.35
2023-01-12T15:52:48.010Z,3.33
2023-01-12T15:55:38.009Z,3.33
2023-01-12T15:58:18.014Z,3.33
2023-01-12T16:01:13.044Z,3.34
2023-01-12T16:04:35.683Z,3.35
2023-01-12T16:06:53.079Z,3.38
2023-01-12T16:09:40.008Z,3.41
2023-01-12T16:12:14.505Z,3.40
2023-01-12T16:15:03.043Z,3.41
2023-01-12T16:17:37.088Z,3.41
2023-01-12T16:20:26.977Z,3.42
2023-01-12T16:23:00.144Z,3.41
2023-01-12T16:25:46.985Z,3.37
2023-01-12T16:28:20.163Z,3.35
2023-01-12T16:31:06.976Z,3.35
2023-01-12T16:33:47.187Z,3.35
2023-01-12T16:36:40.980Z,3.34
2023-01-12T16:39:35.030Z,3.32
2023-01-12T16:42:29.039Z,3.32
2023-01-12T16:45:16.983Z,3.32
2023-01-12T16:47:50.196Z,3.33
2023-01-12T16:50:37.045Z,3.34
2023-01-12T16:53:10.102Z,3.32
2023-01-12T16:55:57.040Z,3.31
2023-01-12T16:58:37.019Z,3.30
2023-01-12T17:01:33.094Z,3.32
2023-01-12T17:04:27.059Z,3.32
2023-01-12T17:07:14.015Z,3.33
2023-01-12T17:09:47.156Z,3.33
2023-01-12T17:12:34.009Z,3.35
2023-01-12T17:15:14.019Z,3.33
2023-01-12T17:18:08.010Z,3.33
2023-01-12T17:20:55.031Z,3.27
2023-01-12T17:23:29.214Z,3.24
2023-01-12T17:26:24.010Z,3.23
2023-01-12T17:29:04.017Z,3.21
2023-01-12T17:31:52.332Z,3.21
2023-01-12T17:34:29.712Z,3.22
2023-01-12T17:37:17.041Z,3.18
2023-01-12T17:39:50.160Z,3.16
2023-01-12T17:42:55.034Z,3.17
2023-01-12T17:45:28.103Z,3.14
2023-01-12T17:48:25.069Z,3.11
2023-01-12T17:50:58.150Z,3.08
2023-01-12T17:53:45.093Z,3.07
2023-01-12T17:56:18.152Z,3.00
2023-01-12T17:59:06.021Z,3.01
2023-01-12T18:01:42.853Z,2.99
2023-01-12T18:04:24.014Z,3.00
2023-01-12T18:07:04.183Z,3.03
2023-01-12T18:09:44.033Z,3.04
2023-01-12T18:12:27.033Z,3.07
2023-01-12T18:15:01.139Z,3.07
2023-01-12T18:17:48.015Z,3.04
2023-01-12T18:20:21.141Z,3.04
2023-01-12T18:23:08.033Z,3.05
2023-01-12T18:25:50.039Z,3.05
2023-01-12T18:28:44.021Z,3.05
2023-01-12T18:31:37.832Z,3.01
2023-01-12T18:34:14.320Z,2.97
2023-01-12T18:37:08.015Z,2.96
2023-01-12T18:40:03.050Z,2.97
2023-01-12T18:43:01.048Z,2.98
2023-01-12T18:45:41.096Z,3.01
2023-01-12T18:48:35.048Z,3.00
2023-01-12T18:51:41.097Z,2.99
2023-01-12T18:54:21.039Z,3.01
2023-01-12T18:57:08.025Z,3.03
2023-01-12T18:59:42.122Z,2.99
2023-01-12T19:02:30.213Z,2.98
2023-01-12T19:05:28.032Z,3.01
2023-01-12T19:08:40.068Z,3.00
2023-01-12T19:11:36.048Z,3.00
2023-01-12T19:14:44.114Z,2.98
2023-01-12T19:17:33.022Z,3.00
2023-01-12T19:20:22.044Z,3.00
2023-01-12T19:23:20.028Z,3.00
2023-01-12T19:26:29.096Z,3.00
2023-01-12T19:29:02.160Z,2.99
2023-01-12T19:31:49.093Z,3.00
2023-01-12T19:34:24.754Z,3.00
2023-01-12T19:37:12.112Z,3.01
2023-01-12T19:40:00.262Z,3.01
2023-01-12T19:43:00.036Z,3.03
2023-01-12T19:45:44.055Z,3.04
2023-01-12T19:48:26.048Z,3.04
2023-01-12T19:51:16.050Z,3.03
2023-01-12T19:53:49.205Z,3.03
2023-01-12T19:56:36.113Z,3.04
2023-01-12T19:59:17.946Z,3.05
2023-01-12T20:02:05.120Z,3.05
2023-01-12T20:04:38.217Z,3.06
2023-01-12T20:07:26.037Z,3.08
2023-01-12T20:10:00.054Z,3.09
2023-01-12T20:12:47.118Z,3.11
2023-01-12T20:15:21.192Z,3.12
2023-01-12T20:18:10.119Z,3.13
2023-01-12T20:20:43.252Z,3.14
2023-01-12T20:23:31.198Z,3.14
2023-01-12T20:26:04.218Z,3.11
2023-01-12T20:28:51.106Z,3.08
2023-01-12T20:31:31.146Z,3.08
2023-01-12T20:34:26.119Z,3.09
2023-01-12T20:37:20.124Z,3.08
2023-01-12T20:40:14.117Z,3.08
2023-01-12T20:43:08.437Z,3.10
2023-01-12T20:45:56.116Z,3.10
2023-01-12T20:48:29.395Z,3.12
2023-01-12T20:51:18.133Z,3.11
2023-01-12T20:54:00.009Z,3.08
2023-01-12T20:56:47.102Z,3.06
2023-01-12T20:59:27.056Z,3.07
2023-01-12T21:02:22.137Z,3.06
2023-01-12T21:05:09.111Z,3.06
2023-01-12T21:07:42.253Z,3.06
2023-01-12T21:10:31.837Z,3.06
2023-01-12T21:13:05.399Z,3.04
2023-01-12T21:15:52.125Z,3.01
2023-01-12T21:18:25.197Z,2.99
2023-01-12T21:21:13.146Z,2.96
2023-01-12T21:23:53.147Z,2.92
2023-01-12T21:26:47.134Z,2.87
2023-01-12T21:29:34.144Z,2.83
2023-01-12T21:32:14.114Z,2.81
2023-01-12T21:35:08.121Z,2.82
2023-01-12T21:37:55.159Z,2.82
2023-01-12T21:40:35.183Z,2.82
2023-01-12T21:43:29.137Z,2.79
2023-01-12T21:46:24.116Z,2.76
2023-01-12T21:49:11.125Z,2.71
2023-01-12T21:51:44.203Z,2.68
2023-01-12T21:54:32.133Z,2.63
2023-01-12T21:57:05.236Z,2.56
2023-01-12T21:59:55.195Z,2.50
2023-01-12T22:02:28.213Z,2.46
2023-01-12T22:05:16.126Z,2.41
2023-01-12T22:07:49.262Z,2.39
2023-01-12T22:10:39.153Z,2.36
2023-01-12T22:13:12.226Z,2.32
2023-01-12T22:16:00.120Z,2.25
2023-01-12T22:18:34.681Z,2.24
2023-01-12T22:21:23.212Z,2.23
2023-01-12T22:24:04.119Z,2.22
2023-01-12T22:26:51.162Z,2.23
2023-01-12T22:29:32.126Z,2.26
2023-01-12T22:32:26.168Z,2.23
2023-01-12T22:35:14.173Z,2.23
2023-01-12T22:37:48.245Z,2.23
2023-01-12T22:40:36.166Z,2.26
2023-01-12T22:43:27.478Z,2.29
2023-01-12T22:46:30.177Z,2.29
2023-01-12T22:49:04.337Z,2.32
2023-01-12T22:51:52.188Z,2.32
2023-01-12T22:54:32.176Z,2.30
2023-01-12T22:57:20.177Z,2.32
2023-01-12T22:59:53.316Z,2.32
2023-01-12T23:02:58.297Z,2.34
2023-01-12T23:05:32.351Z,2.35
2023-01-12T23:08:20.203Z,2.32
2023-01-12T23:10:53.394Z,2.29
2023-01-12T23:13:42.211Z,2.30
2023-01-12T23:16:18.293Z,2.29
2023-01-12T23:19:06.175Z,2.28
2023-01-12T23:21:39.884Z,2.23
2023-01-12T23:24:28.174Z,2.22
2023-01-12T23:27:01.282Z,2.20
2023-01-12T23:29:48.183Z,2.18
2023-01-12T23:32:21.293Z,2.18
2023-01-12T23:35:08.223Z,2.11
2023-01-12T23:37:48.185Z,2.08
2023-01-12T23:40:42.217Z,2.06
2023-01-12T23:43:29.196Z,2.06
2023-01-12T23:46:02.359Z,2.05
2023-01-12T23:48:49.182Z,2.02
2023-01-12T23:51:29.185Z,2.05
2023-01-12T23:54:23.204Z,2.06
2023-01-12T23:57:06.248Z,2.03
2023-01-12T23:59:53.180Z,2.03
